createdAt,value
2022-12-18T00:01:49.596Z,-4.23
2022-12-18T00:06:53.203Z,-4.28
2022-12-18T00:11:56.107Z,-4.31
2022-12-18T00:17:01.881Z,-4.31
2022-12-18T00:22:04.883Z,-4.31
2022-12-18T00:27:07.892Z,-4.39
2022-12-18T00:32:10.805Z,-4.46
2022-12-18T00:37:19.741Z,-4.57
2022-12-18T00:42:41.795Z,-4.68
2022-12-18T00:47:44.653Z,-4.78
2022-12-18T00:52:47.808Z,-4.85
2022-12-18T00:57:53.383Z,-4.90
2022-12-18T01:02:56.403Z,-4.99
2022-12-18T01:08:00.407Z,-5.09
2022-12-18T01:13:03.314Z,-5.12
2022-12-18T01:18:06.727Z,-5.08
2022-12-18T01:23:09.839Z,-5.06
2022-12-18T01:28:12.740Z,-5.14
2022-12-18T01:33:15.748Z,-5.28
2022-12-18T01:38:18.959Z,-5.50
2022-12-18T01:43:21.867Z,-5.75
2022-12-18T01:54:07.650Z,-5.89
2022-12-18T01:59:12.597Z,-5.95
2022-12-18T02:04:27.485Z,-6.05
2022-12-18T02:10:00.900Z,-6.14
2022-12-18T02:15:13.983Z,-6.15
2022-12-18T02:20:37.021Z,-6.18
2022-12-18T02:26:18.151Z,-6.33
2022-12-18T02:31:27.253Z,-6.34
2022-12-18T02:36:33.552Z,-6.25
2022-12-18T02:41:37.719Z,-6.19
2022-12-18T02:46:44.858Z,-6.17
2022-12-18T02:52:08.683Z,-6.24
2022-12-18T02:57:39.032Z,-6.30
2022-12-18T03:02:48.201Z,-6.26
2022-12-18T03:08:00.611Z,-6.26
2022-12-18T03:13:07.614Z,-6.35
2022-12-18T03:18:38.878Z,-6.43
2022-12-18T03:23:47.210Z,-6.52
2022-12-18T03:28:54.721Z,-6.55
2022-12-18T03:34:02.337Z,-6.58
2022-12-18T03:39:05.549Z,-6.56
2022-12-18T03:44:36.101Z,-6.49
2022-12-18T03:49:58.257Z,-6.44
2022-12-18T03:55:04.132Z,-6.32
2022-12-18T04:00:11.806Z,-6.22
2022-12-18T04:05:16.902Z,-6.15
2022-12-18T04:10:20.214Z,-6.17
2022-12-18T04:15:23.132Z,-6.17
2022-12-18T04:20:26.021Z,-6.13
2022-12-18T04:25:28.925Z,-6.09
2022-12-18T04:30:31.932Z,-6.12
2022-12-18T04:35:34.838Z,-6.17
2022-12-18T04:40:38.933Z,-6.15
2022-12-18T04:45:42.197Z,-6.09
2022-12-18T04:50:45.205Z,-5.99
2022-12-18T04:55:48.198Z,-5.85
2022-12-18T05:00:51.101Z,-5.71
2022-12-18T05:05:54.281Z,-5.54
2022-12-18T05:11:06.737Z,-5.41
2022-12-18T05:16:10.076Z,-5.31
2022-12-18T05:21:12.959Z,-5.19
2022-12-18T05:26:18.521Z,-5.08
2022-12-18T05:31:21.489Z,-4.94
2022-12-18T05:36:24.842Z,-4.79
2022-12-18T05:41:29.202Z,-4.73
2022-12-18T05:46:32.164Z,-4.74
2022-12-18T05:51:35.122Z,-4.78
2022-12-18T05:56:37.948Z,-4.83
2022-12-18T06:01:40.881Z,-4.78
2022-12-18T06:06:44.005Z,-4.67
2022-12-18T06:11:46.907Z,-4.57
2022-12-18T06:16:52.664Z,-4.50
2022-12-18T06:21:55.684Z,-4.45
2022-12-18T06:26:58.589Z,-4.42
2022-12-18T06:32:01.553Z,-4.32
2022-12-18T06:37:05.011Z,-4.21
2022-12-18T06:42:08.427Z,-4.14
2022-12-18T06:47:11.740Z,-4.10
2022-12-18T06:52:17.619Z,-4.05
2022-12-18T06:57:20.519Z,-3.96
2022-12-18T07:02:23.509Z,-3.86
2022-12-18T07:07:26.538Z,-3.83
2022-12-18T07:12:29.437Z,-3.77
2022-12-18T07:17:32.448Z,-3.65
2022-12-18T07:22:35.345Z,-3.54
2022-12-18T07:27:38.186Z,-3.54
2022-12-18T07:32:41.158Z,-3.55
2022-12-18T07:37:43.977Z,-3.47
2022-12-18T07:42:47.004Z,-3.40
2022-12-18T07:47:49.867Z,-3.36
2022-12-18T07:52:52.770Z,-3.34
2022-12-18T07:58:00.857Z,-3.28
2022-12-18T08:03:04.342Z,-3.16
2022-12-18T08:08:07.629Z,-3.07
2022-12-18T08:13:10.429Z,-3.00
2022-12-18T08:18:14.579Z,-2.97
2022-12-18T08:23:17.568Z,-3.03
2022-12-18T08:28:20.452Z,-3.02
2022-12-18T08:33:23.477Z,-2.92
2022-12-18T08:38:26.382Z,-2.76
2022-12-18T08:43:48.947Z,-2.56
2022-12-18T08:48:53.428Z,-2.13
2022-12-18T08:53:56.336Z,-1.61
2022-12-18T08:58:59.399Z,-1.18
2022-12-18T09:04:03.228Z,-1.04
2022-12-18T09:09:07.258Z,-1.03
2022-12-18T09:14:10.876Z,-1.30
2022-12-18T09:19:13.885Z,-1.74
2022-12-18T09:24:17.922Z,-1.89
2022-12-18T09:29:20.926Z,-1.72
2022-12-18T09:34:24.034Z,-1.60
2022-12-18T09:39:26.943Z,-1.66
2022-12-18T09:44:47.818Z,-1.73
2022-12-18T09:49:56.194Z,-1.58
2022-12-18T09:55:14.556Z,-1.14
2022-12-18T10:00:24.119Z,-0.20
2022-12-18T10:05:33.069Z,1.35
2022-12-18T10:10:53.478Z,3.31
2022-12-18T10:16:21.218Z,6.88
2022-12-18T10:21:38.915Z,9.90
2022-12-18T10:26:43.111Z,12.04
2022-12-18T10:31:45.951Z,14.01
2022-12-18T10:36:49.060Z,15.25
2022-12-18T10:41:52.988Z,13.61
2022-12-18T10:47:08.756Z,12.80
2022-12-18T10:52:23.168Z,12.94
2022-12-18T10:57:41.638Z,14.07
2022-12-18T11:02:44.783Z,15.34
2022-12-18T11:07:51.234Z,16.54
2022-12-18T11:12:54.242Z,17.42
2022-12-18T11:17:57.556Z,17.84
2022-12-18T11:23:14.490Z,18.23
2022-12-18T11:28:26.739Z,18.50
2022-12-18T11:33:29.725Z,18.24
2022-12-18T11:38:40.386Z,17.97
2022-12-18T11:43:52.247Z,17.89
2022-12-18T11:49:07.820Z,17.78
2022-12-18T11:54:15.845Z,17.72
2022-12-18T11:59:26.938Z,17.50
2022-12-18T12:04:45.613Z,17.10
2022-12-18T12:09:51.708Z,16.51
2022-12-18T12:15:25.420Z,15.72
2022-12-18T12:20:49.363Z,15.13
2022-12-18T12:26:07.276Z,14.75
2022-12-18T12:31:33.357Z,14.45
2022-12-18T12:36:45.545Z,13.78
2022-12-18T12:42:08.004Z,13.14
2022-12-18T12:47:33.520Z,12.40
2022-12-18T12:52:53.165Z,11.68
2022-12-18T12:58:16.220Z,10.90
2022-12-18T13:03:48.595Z,10.38
2022-12-18T13:08:57.784Z,9.43
2022-12-18T13:14:00.664Z,8.60
2022-12-18T13:19:04.080Z,7.94
2022-12-18T13:24:23.163Z,7.09
2022-12-18T13:29:46.806Z,6.15
2022-12-18T13:35:10.569Z,5.18
2022-12-18T13:40:47.902Z,4.36
2022-12-18T13:46:08.517Z,3.51
2022-12-18T13:51:20.121Z,2.25
2022-12-18T13:56:26.243Z,0.86
2022-12-18T14:01:31.090Z,-0.67
2022-12-18T14:06:34.035Z,-2.00
2022-12-18T14:11:38.466Z,-3.05
2022-12-18T14:16:43.940Z,-3.79
2022-12-18T14:21:50.710Z,-4.44
2022-12-18T14:26:53.626Z,-4.81
2022-12-18T14:32:25.677Z,-5.03
2022-12-18T14:37:28.562Z,-5.21
2022-12-18T14:42:31.605Z,-5.30
2022-12-18T14:47:34.483Z,-5.33
2022-12-18T14:52:37.347Z,-5.39
2022-12-18T14:57:43.345Z,-5.42
2022-12-18T15:02:54.371Z,-5.38
2022-12-18T15:08:00.483Z,-5.36
2022-12-18T15:13:04.429Z,-5.35
2022-12-18T15:18:13.092Z,-5.35
2022-12-18T15:23:18.917Z,-5.28
2022-12-18T15:28:40.494Z,-5.22
2022-12-18T15:33:47.223Z,-5.23
2022-12-18T15:39:02.133Z,-5.25
2022-12-18T15:44:25.773Z,-5.27
2022-12-18T15:49:28.602Z,-5.28
2022-12-18T15:54:49.873Z,-5.30
2022-12-18T15:59:55.189Z,-5.32
2022-12-18T16:04:58.277Z,-5.29
2022-12-18T16:10:02.421Z,-5.25
2022-12-18T16:15:07.177Z,-5.22
2022-12-18T16:20:21.874Z,-5.22
2022-12-18T16:25:27.511Z,-5.17
2022-12-18T16:30:37.908Z,-5.15
2022-12-18T16:35:41.532Z,-5.12
2022-12-18T16:41:03.621Z,-5.14
2022-12-18T16:46:06.469Z,-5.10
2022-12-18T16:51:09.347Z,-5.05
2022-12-18T16:56:12.162Z,-5.01
2022-12-18T17:01:15.189Z,-4.99
2022-12-18T17:06:18.056Z,-4.99
2022-12-18T17:11:21.822Z,-4.99
2022-12-18T17:16:25.768Z,-4.92
2022-12-18T17:21:29.042Z,-4.89
2022-12-18T17:26:31.975Z,-4.89
2022-12-18T17:31:35.031Z,-4.86
2022-12-18T17:36:37.891Z,-4.88
2022-12-18T17:41:40.766Z,-4.99
2022-12-18T17:46:44.253Z,-5.04
2022-12-18T17:51:47.484Z,-5.11
2022-12-18T17:56:50.435Z,-5.09
2022-12-18T18:01:53.406Z,-5.02
2022-12-18T18:06:56.706Z,-5.01
2022-12-18T18:12:17.845Z,-5.03
2022-12-18T18:17:20.887Z,-4.99
2022-12-18T18:22:24.027Z,-4.93
2022-12-18T18:27:27.447Z,-4.98
2022-12-18T18:32:30.447Z,-5.15
2022-12-18T18:37:34.276Z,-5.42
2022-12-18T18:42:37.088Z,-5.66
2022-12-18T18:47:40.033Z,-5.82
2022-12-18T18:52:42.908Z,-6.00
2022-12-18T18:57:47.381Z,-6.19
2022-12-18T19:02:50.454Z,-6.37
2022-12-18T19:07:53.515Z,-6.53
2022-12-18T19:13:14.710Z,-6.65
2022-12-18T19:18:17.870Z,-6.74
2022-12-18T19:23:20.967Z,-6.78
2022-12-18T19:28:26.387Z,-6.78
2022-12-18T19:33:48.178Z,-6.76
2022-12-18T19:38:52.540Z,-6.71
2022-12-18T19:43:55.573Z,-6.67
2022-12-18T19:49:00.087Z,-6.65
2022-12-18T19:54:03.836Z,-6.68
2022-12-18T19:59:06.823Z,-6.75
2022-12-18T20:04:09.791Z,-6.81
2022-12-18T20:09:12.878Z,-6.87
2022-12-18T20:14:19.604Z,-6.94
2022-12-18T20:19:27.248Z,-6.99
2022-12-18T20:24:30.144Z,-7.08
2022-12-18T20:29:33.350Z,-7.19
2022-12-18T20:34:36.696Z,-7.26
2022-12-18T20:39:40.375Z,-7.30
2022-12-18T20:44:43.741Z,-7.39
2022-12-18T20:49:46.597Z,-7.42
2022-12-18T20:54:49.476Z,-7.46
2022-12-18T20:59:52.433Z,-7.43
2022-12-18T21:04:55.229Z,-7.44
2022-12-18T21:09:58.109Z,-7.44
2022-12-18T21:15:01.944Z,-7.49
2022-12-18T21:20:05.227Z,-7.64
2022-12-18T21:25:09.920Z,-7.61
2022-12-18T21:30:14.650Z,-7.59
2022-12-18T21:35:17.852Z,-7.62
2022-12-18T21:40:22.851Z,-7.63
2022-12-18T21:45:26.127Z,-7.63
2022-12-18T21:50:28.971Z,-7.62
2022-12-18T21:55:31.936Z,-7.60
2022-12-18T22:00:34.755Z,-7.58
2022-12-18T22:05:37.629Z,-7.56
2022-12-18T22:10:40.667Z,-7.52
2022-12-18T22:15:44.093Z,-7.45
2022-12-18T22:20:47.845Z,-7.41
2022-12-18T22:25:50.664Z,-7.42
2022-12-18T22:30:59.012Z,-7.56
2022-12-18T22:36:06.941Z,-7.74
2022-12-18T22:41:09.785Z,-7.89
2022-12-18T22:46:17.853Z,-7.96
2022-12-18T22:51:21.109Z,-8.03
2022-12-18T22:56:24.111Z,-8.09
2022-12-18T23:01:29.841Z,-8.13
2022-12-18T23:06:32.731Z,-8.15
2022-12-18T23:11:35.588Z,-8.21
2022-12-18T23:16:38.470Z,-8.23
2022-12-18T23:21:41.738Z,-8.22
2022-12-18T23:26:44.633Z,-8.29
2022-12-18T23:31:47.523Z,-8.32
2022-12-18T23:36:54.614Z,-8.28
2022-12-18T23:41:59.306Z,-8.20
2022-12-18T23:47:03.601Z,-8.17
2022-12-18T23:52:06.822Z,-8.09
2022-12-18T23:57:09.665Z,-8.01
